createdAt,value
2018-02-17T00:02:22.987Z,101941.92
2018-02-17T00:04:50.654Z,101942.21
2018-02-17T00:07:18.258Z,101940.89
2018-02-17T00:09:45.943Z,101932.47
2018-02-17T00:12:13.744Z,101925.37
2018-02-17T00:14:41.407Z,101922.03
2018-02-17T00:17:09.107Z,101911.01
2018-02-17T00:19:38.210Z,101908.23
2018-02-17T00:22:05.893Z,101901.37
2018-02-17T00:24:33.652Z,101897.74
2018-02-17T00:27:01.307Z,101891.75
2018-02-17T00:29:29.036Z,101892.88
2018-02-17T00:31:56.762Z,101890.62
2018-02-17T00:34:25.857Z,101889.24
2018-02-17T00:36:53.851Z,101893.58
2018-02-17T00:39:21.656Z,101886.36
2018-02-17T00:41:51.499Z,101881.83
2018-02-17T00:44:19.187Z,101870.95
2018-02-17T00:46:46.856Z,101866.84
2018-02-17T00:49:15.187Z,101863.20
2018-02-17T00:51:43.229Z,101859.38
2018-02-17T00:54:10.897Z,101863.87
2018-02-17T00:56:38.534Z,101860.61
2018-02-17T00:59:06.213Z,101861.56
2018-02-17T01:01:33.934Z,101859.53
2018-02-17T01:04:01.601Z,101851.31
2018-02-17T01:06:29.266Z,101845.66
2018-02-17T01:08:58.735Z,101841.81
2018-02-17T01:11:26.685Z,101836.76
2018-02-17T01:13:54.429Z,101834.16
2018-02-17T01:16:22.153Z,101826.83
2018-02-17T01:18:50.123Z,101820.07
2018-02-17T01:21:18.516Z,101811.77
2018-02-17T01:23:47.175Z,101817.29
2018-02-17T01:26:14.916Z,101815.78
2018-02-17T01:28:42.711Z,101811.63
2018-02-17T01:31:10.491Z,101806.26
2018-02-17T01:33:38.098Z,101814.23
2018-02-17T01:36:05.936Z,101809.94
2018-02-17T01:38:33.679Z,101809.97
2018-02-17T01:41:01.373Z,101806.27
2018-02-17T01:43:29.150Z,101796.63
2018-02-17T01:45:56.962Z,101798.38
2018-02-17T01:48:24.656Z,101803.67
2018-02-17T01:50:52.283Z,101800.39
2018-02-17T01:53:20.043Z,101799.31
2018-02-17T01:55:47.795Z,101798.87
2018-02-17T01:58:15.482Z,101803.09
2018-02-17T02:00:43.235Z,101808.86
2018-02-17T02:03:10.878Z,101813.34
2018-02-17T02:05:39.225Z,101817.33
2018-02-17T02:08:06.939Z,101821.77
2018-02-17T02:10:34.655Z,101815.78
2018-02-17T02:13:02.378Z,101818.85
2018-02-17T02:15:30.065Z,101814.88
2018-02-17T02:17:59.074Z,101811.56
2018-02-17T02:20:26.935Z,101810.05
2018-02-17T02:22:54.613Z,101802.72
2018-02-17T02:25:22.424Z,101798.95
2018-02-17T02:27:50.045Z,101797.77
2018-02-17T02:30:17.803Z,101801.48
2018-02-17T02:32:45.514Z,101794.77
2018-02-17T02:35:13.323Z,101797.99
2018-02-17T02:37:41.082Z,101792.59
2018-02-17T02:40:11.674Z,101787.48
2018-02-17T02:42:39.790Z,101799.48
2018-02-17T02:45:08.993Z,101800.78
2018-02-17T02:47:36.788Z,101795.11
2018-02-17T02:50:04.484Z,101794.12
2018-02-17T02:52:32.254Z,101791.08
2018-02-17T02:54:59.923Z,101783.50
2018-02-17T02:57:27.616Z,101782.05
2018-02-17T02:59:55.422Z,101777.69
2018-02-17T03:02:23.103Z,101768.87
2018-02-17T03:04:50.807Z,101758.71
2018-02-17T03:07:18.440Z,101759.55
2018-02-17T03:09:46.075Z,101761.11
2018-02-17T03:12:13.670Z,101759.31
2018-02-17T03:14:41.307Z,101753.05
2018-02-17T03:17:08.899Z,101743.45
2018-02-17T03:19:36.538Z,101746.95
2018-02-17T03:22:04.127Z,101748.27
2018-02-17T03:24:31.753Z,101742.80
2018-02-17T03:26:59.332Z,101739.09
2018-02-17T03:29:26.995Z,101734.81
2018-02-17T03:31:54.592Z,101730.56
2018-02-17T03:34:22.210Z,101724.88
2018-02-17T03:36:49.815Z,101722.43
2018-02-17T03:39:17.440Z,101715.50
2018-02-17T03:41:45.070Z,101722.27
2018-02-17T03:44:12.735Z,101713.16
2018-02-17T03:46:40.336Z,101717.03
2018-02-17T03:49:08.034Z,101724.02
2018-02-17T03:51:35.635Z,101723.58
2018-02-17T03:54:03.252Z,101718.37
2018-02-17T03:56:30.908Z,101708.09
2018-02-17T03:58:58.551Z,101707.78
2018-02-17T04:01:26.143Z,101701.31
2018-02-17T04:03:53.798Z,101697.63
2018-02-17T04:06:21.407Z,101699.60
2018-02-17T04:08:49.071Z,101693.80
2018-02-17T04:11:16.755Z,101681.48
2018-02-17T04:13:44.448Z,101685.67
2018-02-17T04:16:12.242Z,101693.09
2018-02-17T04:18:40.825Z,101695.96
2018-02-17T04:21:08.488Z,101695.16
2018-02-17T04:23:36.191Z,101700.39
2018-02-17T04:26:03.816Z,101694.91
2018-02-17T04:28:31.427Z,101697.42
2018-02-17T04:30:59.022Z,101692.52
2018-02-17T04:33:26.732Z,101690.00
2018-02-17T04:35:54.337Z,101683.26
2018-02-17T04:38:21.947Z,101683.64
2018-02-17T04:40:54.860Z,101681.19
2018-02-17T04:43:26.287Z,101670.00
2018-02-17T04:46:00.413Z,101662.77
2018-02-17T04:48:28.550Z,101665.70
2018-02-17T04:50:56.142Z,101658.84
2018-02-17T04:53:38.618Z,101656.36
2018-02-17T04:56:10.747Z,101643.13
2018-02-17T05:12:14.110Z,101625.08
2018-02-17T05:17:59.402Z,101639.23
2018-02-17T05:20:30.816Z,101634.23
2018-02-17T05:26:00.970Z,101627.16
2018-02-17T05:28:37.063Z,101629.99
2018-02-17T05:31:07.500Z,101624.02
2018-02-17T05:36:35.473Z,101610.48
2018-02-17T05:39:05.548Z,101616.55
2018-02-17T05:41:52.632Z,101615.36
2018-02-17T05:44:20.287Z,101612.84
2018-02-17T05:46:47.980Z,101610.49
2018-02-17T05:49:18.547Z,101615.78
2018-02-17T05:51:46.162Z,101615.11
2018-02-17T05:54:13.804Z,101615.39
2018-02-17T05:56:41.442Z,101617.30
2018-02-17T05:59:09.174Z,101613.20
2018-02-17T06:01:36.796Z,101606.10
2018-02-17T06:04:04.548Z,101599.65
2018-02-17T06:06:32.154Z,101594.27
2018-02-17T06:08:59.792Z,101593.27
2018-02-17T06:11:27.510Z,101595.72
2018-02-17T06:13:55.163Z,101592.18
2018-02-17T06:16:22.772Z,101590.05
2018-02-17T06:18:50.445Z,101580.56
2018-02-17T06:21:18.144Z,101585.82
2018-02-17T06:23:45.943Z,101581.66
2018-02-17T06:26:13.636Z,101572.31
2018-02-17T06:28:41.385Z,101574.77
2018-02-17T06:31:09.030Z,101572.19
2018-02-17T06:33:36.694Z,101562.64
2018-02-17T06:36:04.630Z,101557.61
2018-02-17T06:38:33.191Z,101556.61
2018-02-17T06:41:00.939Z,101556.45
2018-02-17T06:43:29.004Z,101553.52
2018-02-17T06:45:56.614Z,101555.94
2018-02-17T06:48:24.287Z,101547.00
2018-02-17T06:50:51.928Z,101542.59
2018-02-17T06:53:19.651Z,101546.48
2018-02-17T06:55:47.381Z,101544.58
2018-02-17T06:58:15.006Z,101538.29
2018-02-17T07:00:42.647Z,101538.22
2018-02-17T07:03:10.305Z,101534.25
2018-02-17T07:05:37.999Z,101535.97
2018-02-17T07:08:05.620Z,101540.48
2018-02-17T07:10:33.274Z,101541.41
2018-02-17T07:13:00.891Z,101539.44
2018-02-17T07:15:28.654Z,101536.20
2018-02-17T07:17:56.279Z,101535.91
2018-02-17T07:20:23.937Z,101540.02
2018-02-17T07:22:51.594Z,101539.19
2018-02-17T07:25:19.259Z,101539.77
2018-02-17T07:27:46.957Z,101536.32
2018-02-17T07:30:14.587Z,101537.12
2018-02-17T07:32:42.208Z,101528.93
2018-02-17T07:35:09.865Z,101532.92
2018-02-17T07:37:37.675Z,101534.17
2018-02-17T07:40:05.350Z,101532.97
2018-02-17T07:42:32.991Z,101529.48
2018-02-17T07:45:00.722Z,101531.84
2018-02-17T07:47:28.339Z,101541.86
2018-02-17T07:49:56.065Z,101541.13
2018-02-17T07:52:23.710Z,101534.91
2018-02-17T07:54:51.393Z,101539.80
2018-02-17T07:57:19.048Z,101540.34
2018-02-17T07:59:46.709Z,101542.28
2018-02-17T08:02:14.344Z,101534.06
2018-02-17T08:04:42.049Z,101543.33
2018-02-17T08:07:09.713Z,101544.38
2018-02-17T08:09:37.373Z,101544.09
2018-02-17T08:12:04.975Z,101549.92
2018-02-17T08:14:32.603Z,101556.63
2018-02-17T08:17:00.251Z,101550.45
2018-02-17T08:19:27.888Z,101561.88
2018-02-17T08:21:55.545Z,101561.08
2018-02-17T08:24:23.155Z,101553.27
2018-02-17T08:26:50.805Z,101549.43
2018-02-17T08:29:18.429Z,101546.38
2018-02-17T08:31:46.112Z,101544.98
2018-02-17T08:34:13.742Z,101550.27
2018-02-17T08:36:41.415Z,101547.00
2018-02-17T08:39:09.027Z,101543.98
2018-02-17T08:41:36.683Z,101544.93
2018-02-17T08:44:04.286Z,101543.70
2018-02-17T08:46:31.932Z,101544.83
2018-02-17T08:48:59.535Z,101541.07
2018-02-17T08:51:27.204Z,101542.09
2018-02-17T08:53:54.833Z,101531.63
2018-02-17T08:56:22.500Z,101536.54
2018-02-17T08:58:50.119Z,101531.96
2018-02-17T09:01:17.764Z,101530.38
2018-02-17T09:03:45.387Z,101534.16
2018-02-17T09:06:13.066Z,101541.41
2018-02-17T09:08:40.759Z,101536.02
2018-02-17T09:11:08.439Z,101537.36
2018-02-17T09:13:36.130Z,101531.38
2018-02-17T09:16:03.810Z,101522.48
2018-02-17T09:18:31.467Z,101526.91
2018-02-17T09:20:59.104Z,101521.73
2018-02-17T09:23:26.720Z,101527.02
2018-02-17T09:25:54.423Z,101531.44
2018-02-17T09:28:22.038Z,101531.64
2018-02-17T09:30:49.694Z,101538.28
2018-02-17T09:33:17.340Z,101535.10
2018-02-17T09:35:45.020Z,101537.34
2018-02-17T09:38:12.631Z,101543.38
2018-02-17T09:40:40.276Z,101539.61
2018-02-17T09:43:07.962Z,101537.65
2018-02-17T09:45:35.670Z,101541.34
2018-02-17T09:48:03.287Z,101533.08
2018-02-17T09:50:30.984Z,101534.30
2018-02-17T09:52:58.601Z,101530.30
2018-02-17T09:55:26.256Z,101531.94
2018-02-17T09:57:53.958Z,101535.60
2018-02-17T10:00:21.620Z,101531.02
2018-02-17T10:02:49.352Z,101529.17
2018-02-17T10:05:17.042Z,101528.16
2018-02-17T10:07:44.689Z,101526.73
2018-02-17T10:10:12.309Z,101533.87
2018-02-17T10:12:39.959Z,101529.98
2018-02-17T10:15:07.560Z,101535.72
2018-02-17T10:17:35.243Z,101547.05
2018-02-17T10:20:02.883Z,101551.45
2018-02-17T10:22:30.595Z,101551.34
2018-02-17T10:24:58.296Z,101550.02
2018-02-17T10:27:26.009Z,101550.73
2018-02-17T10:29:53.920Z,101553.80
2018-02-17T10:32:21.683Z,101554.11
2018-02-17T10:34:49.432Z,101558.93
2018-02-17T10:37:17.060Z,101563.30
2018-02-17T10:39:44.737Z,101562.57
2018-02-17T10:42:12.499Z,101564.31
2018-02-17T10:44:40.232Z,101564.41
2018-02-17T10:47:07.975Z,101572.69
2018-02-17T10:49:35.730Z,101571.56
2018-02-17T10:52:03.392Z,101570.34
2018-02-17T10:54:31.036Z,101571.99
2018-02-17T10:56:58.684Z,101566.85
2018-02-17T10:59:26.426Z,101566.84
2018-02-17T11:01:54.086Z,101563.58
2018-02-17T11:04:21.719Z,101553.52
2018-02-17T11:06:49.363Z,101547.56
2018-02-17T11:09:17.007Z,101550.05
2018-02-17T11:11:44.794Z,101545.86
2018-02-17T11:14:12.429Z,101551.75
2018-02-17T11:16:40.143Z,101548.27
2018-02-17T11:19:07.929Z,101552.73
2018-02-17T11:21:35.595Z,101549.09
2018-02-17T11:24:03.273Z,101550.14
2018-02-17T11:26:30.932Z,101553.88
2018-02-17T11:28:58.587Z,101550.68
2018-02-17T11:31:26.391Z,101543.01
2018-02-17T11:33:54.036Z,101545.37
2018-02-17T11:36:21.731Z,101544.42
2018-02-17T11:38:49.422Z,101545.33
2018-02-17T11:41:17.110Z,101538.50
2018-02-17T11:43:44.780Z,101540.53
2018-02-17T11:46:12.452Z,101536.44
2018-02-17T11:48:40.063Z,101538.71
2018-02-17T11:51:07.716Z,101529.00
2018-02-17T11:53:35.374Z,101531.56
2018-02-17T11:56:03.029Z,101527.55
2018-02-17T11:58:30.681Z,101524.70
2018-02-17T12:00:58.340Z,101533.94
2018-02-17T12:03:26.017Z,101537.19
2018-02-17T12:05:53.643Z,101544.11
2018-02-17T12:08:21.268Z,101534.31
2018-02-17T12:10:48.959Z,101533.83
2018-02-17T12:13:16.576Z,101536.02
2018-02-17T12:15:44.263Z,101548.13
2018-02-17T12:18:11.923Z,101552.84
2018-02-17T12:20:39.763Z,101554.06
2018-02-17T12:23:07.418Z,101556.16
2018-02-17T12:25:35.100Z,101553.75
2018-02-17T12:28:02.811Z,101551.91
2018-02-17T12:30:30.490Z,101544.21
2018-02-17T12:32:58.122Z,101548.34
2018-02-17T12:35:25.779Z,101553.25
2018-02-17T12:37:53.531Z,101551.78
2018-02-17T12:40:21.231Z,101550.53
2018-02-17T12:42:48.902Z,101553.02
2018-02-17T12:45:16.568Z,101547.23
2018-02-17T12:47:44.261Z,101553.39
2018-02-17T12:50:11.931Z,101555.00
2018-02-17T12:52:39.664Z,101554.23
2018-02-17T12:55:07.381Z,101558.53
2018-02-17T12:57:35.823Z,101557.83
2018-02-17T13:00:03.524Z,101557.06
2018-02-17T13:02:31.289Z,101553.43
2018-02-17T13:04:59.081Z,101558.59
2018-02-17T13:07:27.764Z,101556.42
2018-02-17T13:09:55.699Z,101556.86
2018-02-17T13:12:23.380Z,101565.17
2018-02-17T13:14:53.147Z,101562.66
2018-02-17T13:17:20.983Z,101559.36
2018-02-17T13:19:49.064Z,101558.84
2018-02-17T13:22:17.583Z,101557.30
2018-02-17T13:24:46.255Z,101556.27
2018-02-17T13:27:14.167Z,101562.41
2018-02-17T13:29:41.957Z,101550.73
2018-02-17T13:32:09.795Z,101557.00
2018-02-17T13:34:37.620Z,101560.41
2018-02-17T13:37:05.302Z,101557.97
2018-02-17T13:39:33.065Z,101556.38
2018-02-17T13:42:00.707Z,101559.29
2018-02-17T13:44:29.270Z,101550.50
2018-02-17T13:46:56.901Z,101547.81
2018-02-17T13:49:24.590Z,101557.19
2018-02-17T13:51:52.203Z,101557.46
2018-02-17T13:54:19.901Z,101560.54
2018-02-17T13:56:47.530Z,101560.43
2018-02-17T13:59:15.244Z,101553.43
2018-02-17T14:01:42.938Z,101555.94
2018-02-17T14:04:10.736Z,101560.61
2018-02-17T14:06:38.381Z,101555.42
2018-02-17T14:09:06.011Z,101559.81
2018-02-17T14:11:33.634Z,101558.70
2018-02-17T14:14:01.284Z,101551.62
2018-02-17T14:16:28.960Z,101558.91
2018-02-17T14:18:56.614Z,101549.86
2018-02-17T14:21:24.252Z,101557.28
2018-02-17T14:23:51.887Z,101557.77
2018-02-17T14:26:19.531Z,101558.30
2018-02-17T14:28:47.320Z,101556.13
2018-02-17T14:31:14.945Z,101559.45
2018-02-17T14:33:42.766Z,101562.72
2018-02-17T14:36:10.395Z,101564.97
2018-02-17T14:38:38.046Z,101553.38
2018-02-17T14:41:05.784Z,101568.40
2018-02-17T14:43:33.476Z,101562.75
2018-02-17T14:46:01.142Z,101561.11
2018-02-17T14:48:28.785Z,101563.62
2018-02-17T14:50:56.415Z,101561.30
2018-02-17T14:53:24.047Z,101568.19
2018-02-17T14:55:51.664Z,101567.23
2018-02-17T14:58:19.440Z,101572.55
2018-02-17T15:00:47.076Z,101572.63
2018-02-17T15:03:15.663Z,101572.97
2018-02-17T15:05:43.345Z,101569.49
2018-02-17T15:08:11.002Z,101574.86
2018-02-17T15:10:38.657Z,101573.52
2018-02-17T15:13:06.298Z,101574.11
2018-02-17T15:15:33.939Z,101575.12
2018-02-17T15:18:01.610Z,101576.84
2018-02-17T15:20:29.227Z,101583.12
2018-02-17T15:22:57.007Z,101581.50
2018-02-17T15:25:24.656Z,101587.58
2018-02-17T15:27:52.304Z,101584.28
2018-02-17T15:30:19.918Z,101582.62
2018-02-17T15:32:47.554Z,101588.22
2018-02-17T15:35:15.424Z,101584.80
2018-02-17T15:37:43.052Z,101582.30
2018-02-17T15:40:10.693Z,101586.92
2018-02-17T15:42:38.382Z,101578.65
2018-02-17T15:45:06.066Z,101584.92
2018-02-17T15:47:33.719Z,101587.81
2018-02-17T15:50:01.343Z,101587.61
2018-02-17T15:52:29.137Z,101587.03
2018-02-17T15:54:56.756Z,101591.06
2018-02-17T15:57:24.430Z,101598.36
2018-02-17T15:59:52.057Z,101598.00
2018-02-17T16:02:19.658Z,101596.37
2018-02-17T16:04:47.526Z,101602.20
2018-02-17T16:07:15.115Z,101609.16
2018-02-17T16:09:42.784Z,101613.89
2018-02-17T16:12:10.414Z,101615.13
2018-02-17T16:14:38.060Z,101617.91
2018-02-17T16:17:05.678Z,101615.33
2018-02-17T16:19:33.354Z,101622.07
2018-02-17T16:22:00.976Z,101617.58
2018-02-17T16:24:28.660Z,101625.43
2018-02-17T16:26:56.330Z,101622.38
2018-02-17T16:29:23.967Z,101626.48
2018-02-17T16:31:51.673Z,101630.37
2018-02-17T16:34:19.393Z,101622.55
2018-02-17T16:36:47.015Z,101628.56
2018-02-17T16:39:14.697Z,101625.92
2018-02-17T16:41:42.416Z,101635.81
2018-02-17T16:44:10.215Z,101635.42
2018-02-17T16:46:37.909Z,101637.78
2018-02-17T16:49:05.599Z,101639.25
2018-02-17T16:51:33.271Z,101639.72
2018-02-17T16:54:00.979Z,101640.20
2018-02-17T16:56:28.667Z,101643.44
2018-02-17T16:58:56.376Z,101647.64
2018-02-17T17:01:24.033Z,101652.61
2018-02-17T17:03:51.706Z,101653.08
2018-02-17T17:06:19.355Z,101652.39
2018-02-17T17:08:47.034Z,101661.64
2018-02-17T17:11:14.689Z,101666.31
2018-02-17T17:13:42.384Z,101671.07
2018-02-17T17:16:10.025Z,101673.66
2018-02-17T17:18:37.702Z,101684.93
2018-02-17T17:21:05.431Z,101696.45
2018-02-17T17:23:33.158Z,101698.22
2018-02-17T17:26:00.864Z,101705.72
2018-02-17T17:28:28.546Z,101704.20
2018-02-17T17:30:56.268Z,101704.53
2018-02-17T17:33:24.091Z,101709.05
2018-02-17T17:35:51.781Z,101717.16
2018-02-17T17:38:19.428Z,101715.63
2018-02-17T17:40:47.083Z,101712.88
2018-02-17T17:43:14.858Z,101722.63
2018-02-17T17:45:42.507Z,101722.11
2018-02-17T17:48:10.215Z,101727.26
2018-02-17T17:50:37.865Z,101733.18
2018-02-17T17:53:05.611Z,101735.66
2018-02-17T17:55:33.255Z,101738.33
2018-02-17T17:58:00.952Z,101742.31
2018-02-17T18:00:28.572Z,101747.00
2018-02-17T18:02:56.250Z,101750.39
2018-02-17T18:05:24.007Z,101750.39
2018-02-17T18:07:53.470Z,101756.12
2018-02-17T18:10:21.409Z,101755.69
2018-02-17T18:12:49.819Z,101755.47
2018-02-17T18:15:19.243Z,101751.69
2018-02-17T18:17:47.161Z,101758.33
2018-02-17T18:20:14.928Z,101757.42
2018-02-17T18:22:42.664Z,101764.75
2018-02-17T18:25:10.382Z,101766.19
2018-02-17T18:27:38.101Z,101762.71
2018-02-17T18:30:05.780Z,101764.34
2018-02-17T18:32:33.579Z,101770.38
2018-02-17T18:35:01.327Z,101772.70
2018-02-17T18:37:29.061Z,101771.57
2018-02-17T18:39:56.707Z,101776.48
2018-02-17T18:42:24.370Z,101773.20
2018-02-17T18:44:52.028Z,101777.07
2018-02-17T18:47:19.724Z,101777.54
2018-02-17T18:49:47.366Z,101775.78
2018-02-17T18:52:15.031Z,101784.38
2018-02-17T18:54:42.692Z,101776.83
2018-02-17T18:57:10.440Z,101782.73
2018-02-17T18:59:38.359Z,101783.25
2018-02-17T19:02:06.163Z,101780.17
2018-02-17T19:04:33.841Z,101779.44
2018-02-17T19:07:01.608Z,101782.07
2018-02-17T19:09:29.229Z,101783.17
2018-02-17T19:11:56.929Z,101783.05
2018-02-17T19:14:25.176Z,101785.28
2018-02-17T19:16:52.878Z,101785.94
2018-02-17T19:19:20.562Z,101792.23
2018-02-17T19:21:48.380Z,101783.88
2018-02-17T19:24:16.188Z,101788.64
2018-02-17T19:26:43.934Z,101787.91
2018-02-17T19:29:12.498Z,101779.32
2018-02-17T19:31:40.256Z,101784.80
2018-02-17T19:34:08.044Z,101788.66
2018-02-17T19:36:35.778Z,101782.66
2018-02-17T19:39:03.533Z,101783.34
2018-02-17T19:41:31.325Z,101781.70
2018-02-17T19:43:59.137Z,101781.97
2018-02-17T19:46:26.935Z,101784.72
2018-02-17T19:48:55.543Z,101784.11
2018-02-17T19:51:23.386Z,101785.94
2018-02-17T19:53:51.160Z,101785.09
2018-02-17T19:56:19.023Z,101784.68
2018-02-17T19:58:46.706Z,101798.55
2018-02-17T20:01:14.509Z,101799.66
2018-02-17T20:03:42.266Z,101797.82
2018-02-17T20:06:10.025Z,101799.83
2018-02-17T20:08:37.799Z,101801.66
2018-02-17T20:11:05.580Z,101807.54
2018-02-17T20:13:33.339Z,101813.53
2018-02-17T20:16:01.196Z,101809.92
2018-02-17T20:18:28.947Z,101813.35
2018-02-17T20:20:56.719Z,101814.19
2018-02-17T20:23:24.454Z,101813.63
2018-02-17T20:25:52.237Z,101817.61
2018-02-17T20:28:20.021Z,101820.65
2018-02-17T20:30:47.911Z,101821.66
2018-02-17T20:33:15.788Z,101825.98
2018-02-17T20:35:43.578Z,101828.34
2018-02-17T20:38:11.335Z,101834.66
2018-02-17T20:40:39.111Z,101836.59
2018-02-17T20:43:06.915Z,101845.94
2018-02-17T20:45:34.713Z,101852.73
2018-02-17T20:48:02.508Z,101857.41
2018-02-17T20:50:30.265Z,101854.80
2018-02-17T20:52:58.136Z,101865.35
2018-02-17T20:55:26.685Z,101871.67
2018-02-17T20:57:54.646Z,101872.73
2018-02-17T21:00:25.430Z,101874.25
2018-02-17T21:02:53.213Z,101873.02
2018-02-17T21:05:21.734Z,101868.84
2018-02-17T21:07:50.460Z,101865.36
2018-02-17T21:10:18.274Z,101864.95
2018-02-17T21:12:46.088Z,101868.08
2018-02-17T21:15:13.911Z,101875.20
2018-02-17T21:17:41.751Z,101870.75
2018-02-17T21:20:09.580Z,101873.80
2018-02-17T21:22:37.355Z,101880.77
2018-02-17T21:25:05.191Z,101882.64
2018-02-17T21:27:33.010Z,101886.06
2018-02-17T21:30:00.828Z,101890.98
2018-02-17T21:32:28.692Z,101897.41
2018-02-17T21:34:56.495Z,101902.10
2018-02-17T21:37:24.299Z,101903.80
2018-02-17T21:39:52.102Z,101907.92
2018-02-17T21:42:19.866Z,101907.44
2018-02-17T21:44:47.665Z,101909.10
2018-02-17T21:47:15.428Z,101914.53
2018-02-17T21:49:43.245Z,101915.91
2018-02-17T21:52:11.040Z,101917.70
2018-02-17T21:54:38.810Z,101914.86
2018-02-17T21:57:06.617Z,101914.66
2018-02-17T21:59:34.349Z,101922.09
2018-02-17T22:02:02.173Z,101919.38
2018-02-17T22:04:29.894Z,101929.59
2018-02-17T22:06:57.659Z,101927.77
2018-02-17T22:09:25.474Z,101926.48
2018-02-17T22:11:53.373Z,101932.34
2018-02-17T22:14:21.172Z,101931.11
2018-02-17T22:16:48.922Z,101935.69
2018-02-17T22:19:16.701Z,101939.28
2018-02-17T22:21:44.509Z,101945.28
2018-02-17T22:24:12.232Z,101943.48
2018-02-17T22:26:40.016Z,101942.25
2018-02-17T22:29:07.801Z,101944.08
2018-02-17T22:31:35.552Z,101938.56
2018-02-17T22:34:03.252Z,101945.17
2018-02-17T22:36:31.027Z,101947.50
2018-02-17T22:38:58.733Z,101943.14
2018-02-17T22:41:26.532Z,101939.75
2018-02-17T22:43:54.208Z,101938.66
2018-02-17T22:46:22.669Z,101948.30
2018-02-17T22:48:50.395Z,101942.86
2018-02-17T22:51:18.164Z,101943.65
2018-02-17T22:53:45.902Z,101948.65
2018-02-17T22:56:13.616Z,101948.53
2018-02-17T22:58:41.380Z,101947.55
2018-02-17T23:01:09.089Z,101947.23
2018-02-17T23:03:36.875Z,101949.55
2018-02-17T23:06:04.620Z,101955.22
2018-02-17T23:08:32.336Z,101962.44
2018-02-17T23:11:00.177Z,101961.20
2018-02-17T23:13:27.859Z,101965.68
2018-02-17T23:15:55.650Z,101962.11
2018-02-17T23:18:23.356Z,101960.75
2018-02-17T23:20:51.102Z,101962.86
2018-02-17T23:23:18.760Z,101962.56
2018-02-17T23:25:47.090Z,101960.85
2018-02-17T23:28:14.882Z,101962.48
2018-02-17T23:30:42.750Z,101961.73
2018-02-17T23:33:10.518Z,101966.08
2018-02-17T23:35:38.469Z,101961.81
2018-02-17T23:38:06.461Z,101954.42
2018-02-17T23:40:34.350Z,101957.28
2018-02-17T23:43:02.267Z,101958.85
2018-02-17T23:45:30.144Z,101962.03
2018-02-17T23:47:57.907Z,101959.15
2018-02-17T23:50:25.708Z,101962.72
2018-02-17T23:52:53.484Z,101959.95
2018-02-17T23:55:21.324Z,101961.92
2018-02-17T23:57:49.080Z,101954.75
